Hlavní strana
METAR-TAF:

METAR-TAF

Letiště :

Káhira, Egypt

Mezinárodní letiště Káhira

zeměpisná šířka: 30-08N, zeměpisná délka: 031-24E, výška: 64 m

Aktuální stav počasí

Zpráva byla vytvořena před 34 minutami, v 18:30 UTC
Severoseverovýchodní vítr 18 kt
Teplota 22°C
Vlhkost vzduchu 57%
Tlak 1015 hPa
Viditelnost 10 km a více
Žádná oblačnost pod 1500 m, nevyskytují se cumulonimby.

METAR: HECA 231830Z 03018KT CAVOK 22/13 Q1015 NOSIG

Čas: 21:04 (19:04 UTC)

Předpověď počasí

Zpráva byla vytvořena před 1 hodinou a 56 minutami, v 17:08 UTC
Předpověď platná od 23 v 18 UTC do 24 v 24 UTC
Severoseverovýchodní vítr 12 kt
Viditelnost 10 km a více
Žádná oblačnost pod 1500 m, nevyskytují se cumulonimby.

TAF: HECA 231708Z 2318/2424 02012KT CAVOK

Stav a předpovědi počasí z více než 4 000 letišť (zprávy METAR a TAF).

Červené a žluté tečky na mapě představují dostupné meteorologické stanice.

Když kurzor umístíte na tečku, zobrazí se název stanice.

Pak kliknutím zobrazíte stav a předpověď počasí.

Chcete-li změnit mapu, kliknutím na zelené tlačítko se znaménkem +mapu přiblížíte, kliknutím na zelené tlačítko se znaménkem – mapu oddálíte a kliknutím na zelené šipky přejdete na sousední mapy.


METAR-TAF: